createdAt,value
2017-07-06T00:00:12.301Z,84.20
2017-07-06T00:02:41.089Z,84.10
2017-07-06T00:05:09.721Z,84.20
2017-07-06T00:07:38.667Z,84.60
2017-07-06T00:10:06.942Z,85.20
2017-07-06T00:12:35.680Z,85.30
2017-07-06T00:15:04.730Z,85.80
2017-07-06T00:17:33.942Z,85.80
2017-07-06T00:20:02.229Z,86.80
2017-07-06T00:22:30.504Z,87.10
2017-07-06T00:24:59.103Z,87.20
2017-07-06T00:27:27.574Z,87.20
2017-07-06T00:29:56.161Z,87.20
2017-07-06T00:32:24.473Z,87.00
2017-07-06T00:34:52.843Z,87.40
2017-07-06T00:37:21.211Z,87.40
2017-07-06T00:39:49.506Z,88.10
2017-07-06T00:42:18.097Z,88.50
2017-07-06T00:44:46.368Z,88.40
2017-07-06T00:47:14.656Z,88.70
2017-07-06T00:49:43.441Z,87.80
2017-07-06T00:52:11.751Z,88.60
2017-07-06T00:54:40.311Z,88.40
2017-07-06T00:57:08.590Z,88.00
2017-07-06T00:59:37.613Z,88.80
2017-07-06T01:02:05.994Z,88.90
2017-07-06T01:04:34.275Z,89.40
2017-07-06T01:07:02.855Z,89.60
2017-07-06T01:09:31.141Z,89.40
2017-07-06T01:11:59.408Z,89.10
2017-07-06T01:14:27.707Z,88.80
2017-07-06T01:16:56.034Z,88.70
2017-07-06T01:19:25.915Z,89.00
2017-07-06T01:21:54.898Z,88.80
2017-07-06T01:24:23.165Z,89.50
2017-07-06T01:26:52.070Z,88.30
2017-07-06T01:29:20.351Z,88.20
2017-07-06T01:31:48.930Z,87.40
2017-07-06T01:34:17.213Z,86.80
2017-07-06T01:36:45.490Z,87.00
2017-07-06T01:39:13.781Z,87.10
2017-07-06T01:41:42.059Z,87.10
2017-07-06T01:44:10.656Z,87.50
2017-07-06T01:46:38.946Z,88.10
2017-07-06T01:49:07.231Z,88.10
2017-07-06T01:51:35.510Z,87.10
2017-07-06T01:54:03.895Z,87.90
2017-07-06T01:56:32.468Z,88.00
2017-07-06T01:59:00.747Z,87.10
2017-07-06T02:01:30.239Z,87.40
2017-07-06T02:03:59.361Z,86.90
2017-07-06T02:06:27.637Z,86.90
2017-07-06T02:08:56.640Z,87.00
2017-07-06T02:11:24.907Z,87.10
2017-07-06T02:13:53.445Z,87.10
2017-07-06T02:16:21.735Z,87.40
2017-07-06T02:18:50.769Z,87.90
2017-07-06T02:21:20.294Z,88.70
2017-07-06T02:23:48.695Z,87.60
2017-07-06T02:26:17.082Z,87.70
2017-07-06T02:28:45.450Z,87.70
2017-07-06T02:31:13.731Z,86.90
2017-07-06T02:33:42.339Z,87.60
2017-07-06T02:36:10.624Z,87.00
2017-07-06T02:38:38.973Z,87.10
2017-07-06T02:41:07.407Z,86.90
2017-07-06T02:43:35.711Z,87.00
2017-07-06T02:46:05.876Z,86.30
2017-07-06T02:48:34.663Z,86.30
2017-07-06T02:51:02.942Z,86.20
2017-07-06T02:53:31.245Z,86.10
2017-07-06T02:55:59.554Z,86.00
2017-07-06T02:58:28.201Z,86.00
2017-07-06T03:00:56.480Z,85.80
2017-07-06T03:03:24.771Z,85.60
2017-07-06T03:05:53.538Z,85.70
2017-07-06T03:08:21.819Z,85.90
2017-07-06T03:10:50.436Z,85.60
2017-07-06T03:13:19.014Z,85.50
2017-07-06T03:15:47.289Z,85.60
2017-07-06T03:18:15.592Z,85.60
2017-07-06T03:20:43.850Z,85.50
2017-07-06T03:23:12.437Z,85.20
2017-07-06T03:25:40.939Z,85.20
2017-07-06T03:28:09.205Z,85.40
2017-07-06T03:30:37.507Z,85.50
2017-07-06T03:33:06.399Z,85.70
2017-07-06T03:35:34.974Z,85.00
2017-07-06T03:38:03.357Z,84.60
2017-07-06T03:40:31.752Z,84.30
2017-07-06T03:43:00.632Z,84.00
2017-07-06T03:45:28.907Z,83.60
2017-07-06T03:47:57.525Z,83.60
2017-07-06T03:50:25.916Z,83.20
2017-07-06T03:52:54.219Z,83.60
2017-07-06T03:55:23.289Z,84.60
2017-07-06T03:57:51.576Z,83.80
2017-07-06T04:00:20.160Z,83.80
2017-07-06T04:02:48.429Z,83.40
2017-07-06T04:05:16.705Z,82.80
2017-07-06T04:07:45.080Z,82.10
2017-07-06T04:10:13.372Z,82.30
2017-07-06T04:12:41.770Z,81.90
2017-07-06T04:15:10.141Z,81.20
2017-07-06T04:17:38.428Z,81.20
2017-07-06T04:20:07.005Z,80.90
2017-07-06T04:22:35.811Z,80.90
2017-07-06T04:25:04.565Z,80.80
2017-07-06T04:27:33.180Z,80.20
2017-07-06T04:30:01.461Z,80.10
2017-07-06T04:32:30.233Z,79.30
2017-07-06T04:34:59.137Z,79.60
2017-07-06T04:37:27.438Z,79.20
2017-07-06T04:39:55.991Z,79.50
2017-07-06T04:42:24.587Z,79.30
2017-07-06T04:44:53.311Z,79.10
2017-07-06T04:47:21.721Z,79.20
2017-07-06T04:49:50.007Z,78.90
2017-07-06T04:52:18.705Z,78.70
2017-07-06T04:54:46.991Z,78.20
2017-07-06T04:57:16.863Z,77.10
2017-07-06T04:59:45.166Z,77.70
2017-07-06T05:02:14.041Z,77.40
2017-07-06T05:04:42.618Z,76.80
2017-07-06T05:07:10.901Z,76.40
2017-07-06T05:09:39.913Z,76.10
2017-07-06T05:12:08.192Z,75.80
2017-07-06T05:14:36.465Z,75.50
2017-07-06T05:17:05.063Z,75.40
2017-07-06T05:19:33.481Z,75.10
2017-07-06T05:22:02.284Z,75.00
2017-07-06T05:24:31.356Z,74.20
2017-07-06T05:27:00.529Z,73.90
2017-07-06T05:29:29.153Z,73.90
2017-07-06T05:31:58.040Z,73.70
2017-07-06T05:34:26.314Z,73.00
2017-07-06T05:36:54.684Z,72.10
2017-07-06T05:39:22.986Z,71.70
2017-07-06T05:41:51.886Z,71.30
2017-07-06T05:44:20.234Z,70.50
2017-07-06T05:46:48.522Z,69.90
2017-07-06T05:49:16.939Z,68.80
2017-07-06T05:51:46.549Z,67.10
2017-07-06T05:54:17.648Z,66.40
2017-07-06T05:56:46.157Z,65.90
2017-07-06T05:59:14.450Z,65.50
2017-07-06T06:01:42.844Z,65.30
2017-07-06T06:04:11.098Z,65.80
2017-07-06T06:06:39.792Z,64.90
2017-07-06T06:09:08.065Z,63.70
2017-07-06T06:11:36.387Z,64.60
2017-07-06T06:14:04.739Z,62.80
2017-07-06T06:16:33.015Z,63.50
2017-07-06T06:19:02.107Z,63.80
2017-07-06T06:21:30.377Z,60.90
2017-07-06T06:23:58.693Z,60.20
2017-07-06T06:26:27.491Z,59.90
2017-07-06T06:28:55.773Z,59.20
2017-07-06T06:31:24.333Z,59.50
2017-07-06T06:33:52.631Z,59.60
2017-07-06T06:36:21.868Z,59.90
2017-07-06T06:38:50.505Z,59.40
2017-07-06T06:41:19.406Z,57.10
2017-07-06T06:43:49.055Z,56.00
2017-07-06T06:46:17.352Z,55.70
2017-07-06T06:48:47.639Z,55.30
2017-07-06T06:51:15.942Z,55.20
2017-07-06T06:53:44.342Z,55.80
2017-07-06T06:56:13.006Z,55.70
2017-07-06T06:58:41.401Z,53.70
2017-07-06T07:01:09.770Z,53.20
2017-07-06T07:03:38.089Z,54.50
2017-07-06T07:06:07.141Z,53.80
2017-07-06T07:08:35.725Z,53.70
2017-07-06T07:11:05.730Z,53.70
2017-07-06T07:13:34.031Z,53.00
2017-07-06T07:16:02.327Z,52.60
2017-07-06T07:18:30.699Z,51.40
2017-07-06T07:20:59.928Z,50.80
2017-07-06T07:23:28.291Z,49.90
2017-07-06T07:25:56.585Z,49.20
2017-07-06T07:28:24.969Z,49.10
2017-07-06T07:30:53.234Z,49.30
2017-07-06T07:33:21.831Z,48.50
2017-07-06T07:35:50.760Z,48.00
2017-07-06T07:38:21.378Z,48.10
2017-07-06T07:40:49.711Z,48.50
2017-07-06T07:43:18.023Z,48.40
2017-07-06T07:45:48.459Z,48.40
2017-07-06T07:48:17.661Z,48.70
2017-07-06T07:50:46.159Z,49.10
2017-07-06T07:53:15.907Z,47.60
2017-07-06T07:55:45.060Z,47.60
2017-07-06T07:58:18.567Z,47.50
2017-07-06T08:00:48.064Z,47.70
2017-07-06T08:03:16.329Z,47.60
2017-07-06T08:05:44.659Z,47.90
2017-07-06T08:08:13.016Z,48.00
2017-07-06T08:10:45.910Z,47.50
2017-07-06T08:13:14.211Z,46.60
2017-07-06T08:15:42.513Z,46.80
2017-07-06T08:18:11.095Z,46.40
2017-07-06T08:20:40.183Z,45.70
2017-07-06T08:23:08.504Z,46.10
2017-07-06T08:25:36.829Z,46.70
2017-07-06T08:28:05.182Z,47.30
2017-07-06T08:30:33.813Z,47.40
2017-07-06T08:33:02.113Z,46.80
2017-07-06T08:35:31.238Z,46.60
2017-07-06T08:37:59.524Z,46.40
2017-07-06T08:40:28.793Z,46.00
2017-07-06T08:42:58.912Z,45.40
2017-07-06T08:45:27.732Z,45.40
2017-07-06T08:47:56.804Z,45.80
2017-07-06T08:50:25.091Z,45.80
2017-07-06T08:52:55.031Z,46.40
2017-07-06T08:55:24.612Z,46.40
2017-07-06T08:57:53.495Z,46.90
2017-07-06T09:00:21.812Z,47.00
2017-07-06T09:02:51.875Z,46.50
2017-07-06T09:05:20.501Z,45.90
2017-07-06T09:07:49.056Z,44.70
2017-07-06T09:10:17.369Z,44.50
2017-07-06T09:12:46.737Z,43.20
2017-07-06T09:15:16.636Z,42.40
2017-07-06T09:17:45.037Z,42.40
2017-07-06T09:20:16.314Z,42.20
2017-07-06T09:22:48.196Z,42.90
2017-07-06T09:25:19.158Z,43.00
2017-07-06T09:27:50.265Z,43.00
2017-07-06T09:30:19.779Z,43.00
2017-07-06T09:32:49.707Z,42.70
2017-07-06T09:35:18.830Z,42.50
2017-07-06T09:37:47.162Z,42.70
2017-07-06T09:40:16.312Z,41.90
2017-07-06T09:42:45.663Z,42.20
2017-07-06T09:45:13.947Z,42.20
2017-07-06T09:47:42.351Z,42.70
2017-07-06T09:50:11.233Z,42.20
2017-07-06T09:52:40.248Z,42.50
2017-07-06T09:55:08.971Z,42.20
2017-07-06T09:57:37.280Z,41.50
2017-07-06T10:00:05.571Z,40.70
2017-07-06T10:02:33.864Z,40.90
2017-07-06T10:05:02.155Z,40.70
2017-07-06T10:07:31.553Z,40.00
2017-07-06T10:09:59.863Z,40.30
2017-07-06T10:12:29.872Z,40.30
2017-07-06T10:14:58.251Z,40.10
2017-07-06T10:17:26.747Z,40.20
2017-07-06T10:19:55.368Z,40.40
2017-07-06T10:22:24.444Z,38.40
2017-07-06T10:24:52.756Z,38.40
2017-07-06T10:27:21.391Z,38.00
2017-07-06T10:29:50.203Z,36.70
2017-07-06T10:32:18.691Z,36.50
2017-07-06T10:34:48.065Z,35.60
2017-07-06T10:37:16.365Z,34.50
2017-07-06T10:39:44.749Z,34.30
2017-07-06T10:42:13.306Z,34.20
2017-07-06T10:44:41.626Z,35.10
2017-07-06T10:47:10.010Z,36.20
2017-07-06T10:49:38.573Z,35.80
2017-07-06T10:52:06.907Z,35.70
2017-07-06T10:54:35.834Z,36.70
2017-07-06T10:57:04.449Z,36.30
2017-07-06T10:59:33.251Z,36.70
2017-07-06T11:02:02.445Z,37.20
2017-07-06T11:04:31.047Z,37.80
2017-07-06T11:07:00.583Z,37.10
2017-07-06T11:09:30.384Z,36.90
2017-07-06T11:11:59.715Z,36.90
2017-07-06T11:14:28.491Z,37.20
2017-07-06T11:16:57.263Z,36.20
2017-07-06T11:19:26.056Z,35.70
2017-07-06T11:21:54.320Z,35.30
2017-07-06T11:24:22.693Z,35.70
2017-07-06T11:26:51.270Z,35.40
2017-07-06T11:29:19.587Z,36.00
2017-07-06T11:31:47.938Z,37.10
2017-07-06T11:34:16.766Z,38.30
2017-07-06T11:36:45.868Z,33.20
2017-07-06T11:41:45.283Z,28.70
2017-07-06T11:44:15.340Z,25.20
2017-07-06T11:46:44.407Z,22.60
2017-07-06T11:49:14.468Z,20.90
2017-07-06T11:51:43.613Z,20.40
2017-07-06T11:54:12.234Z,20.30
2017-07-06T11:59:10.439Z,19.30
2017-07-06T12:01:40.139Z,18.20
2017-07-06T12:04:08.739Z,18.20
2017-07-06T12:06:37.814Z,37.30
2017-07-06T12:09:07.241Z,19.10
2017-07-06T12:11:36.845Z,20.00
2017-07-06T12:14:05.915Z,19.40
2017-07-06T12:16:35.094Z,19.30
2017-07-06T12:19:05.626Z,18.80
2017-07-06T12:21:33.916Z,19.20
2017-07-06T12:24:02.236Z,20.40
2017-07-06T12:26:32.076Z,22.60
2017-07-06T12:29:00.437Z,23.00
2017-07-06T12:31:28.713Z,23.60
2017-07-06T12:33:57.322Z,24.60
2017-07-06T12:36:25.652Z,26.00
2017-07-06T12:38:55.135Z,26.90
2017-07-06T12:41:24.131Z,27.30
2017-07-06T12:43:53.247Z,27.80
2017-07-06T12:46:22.299Z,27.70
2017-07-06T12:48:50.990Z,27.60
2017-07-06T12:51:19.305Z,28.50
2017-07-06T12:53:48.351Z,28.30
2017-07-06T12:56:16.949Z,28.20
2017-07-06T12:58:45.261Z,27.10
2017-07-06T13:01:13.556Z,27.10
2017-07-06T13:03:43.940Z,27.60
2017-07-06T13:06:12.444Z,27.60
2017-07-06T13:08:40.689Z,27.00
2017-07-06T13:11:08.993Z,25.40
2017-07-06T13:13:37.280Z,25.50
2017-07-06T13:16:05.893Z,26.70
2017-07-06T13:18:34.935Z,25.30
2017-07-06T13:21:03.207Z,25.30
2017-07-06T13:23:32.123Z,24.20
2017-07-06T13:26:00.391Z,23.70
2017-07-06T13:28:30.451Z,24.00
2017-07-06T13:30:59.243Z,24.20
2017-07-06T13:33:27.632Z,24.00
2017-07-06T13:35:56.127Z,24.80
2017-07-06T13:38:24.416Z,24.60
2017-07-06T13:40:53.737Z,26.90
2017-07-06T13:43:22.786Z,25.90
2017-07-06T13:45:51.088Z,25.80
2017-07-06T13:48:19.426Z,25.90
2017-07-06T13:50:47.741Z,26.90
2017-07-06T13:55:58.308Z,28.30
2017-07-06T13:58:26.592Z,29.20
2017-07-06T14:00:55.195Z,28.30
2017-07-06T14:03:23.477Z,28.30
2017-07-06T14:05:52.774Z,29.10
2017-07-06T14:08:21.072Z,28.00
2017-07-06T14:10:50.504Z,24.90
2017-07-06T14:13:20.336Z,22.00
2017-07-06T14:15:49.345Z,19.60
2017-07-06T14:18:19.316Z,19.00
2017-07-06T14:20:48.407Z,19.10
2017-07-06T14:23:17.292Z,19.00
2017-07-06T14:25:45.893Z,18.90
2017-07-06T14:28:14.982Z,19.20
2017-07-06T14:30:44.077Z,17.80
2017-07-06T14:33:13.751Z,17.80
2017-07-06T14:35:42.397Z,17.20
2017-07-06T14:38:11.520Z,16.40
2017-07-06T14:40:40.614Z,15.40
2017-07-06T14:43:08.916Z,15.40
2017-07-06T14:45:37.687Z,15.40
2017-07-06T14:48:06.873Z,15.70
2017-07-06T14:50:36.318Z,15.70
2017-07-06T14:53:04.805Z,16.10
2017-07-06T14:55:33.158Z,16.00
2017-07-06T14:58:02.706Z,16.30
2017-07-06T15:00:31.014Z,16.30
2017-07-06T15:02:59.427Z,16.40
2017-07-06T15:05:28.536Z,16.20
2017-07-06T15:07:57.646Z,15.50
2017-07-06T15:10:27.729Z,15.30
2017-07-06T15:12:57.176Z,15.00
2017-07-06T15:15:26.181Z,15.40
2017-07-06T15:17:54.501Z,15.90
2017-07-06T15:20:26.425Z,24.90
2017-07-06T15:22:55.110Z,46.90
2017-07-06T15:25:24.195Z,18.30
2017-07-06T15:27:52.552Z,18.30
2017-07-06T15:30:21.632Z,18.90
2017-07-06T15:32:49.959Z,20.40
2017-07-06T15:35:19.328Z,21.30
2017-07-06T15:37:48.791Z,32.40
2017-07-06T15:40:17.879Z,25.40
2017-07-06T15:42:47.906Z,24.90
2017-07-06T15:45:16.177Z,25.50
2017-07-06T15:47:44.759Z,25.40
2017-07-06T15:50:13.156Z,25.50
2017-07-06T15:52:41.433Z,25.80
2017-07-06T15:55:09.807Z,25.70
2017-07-06T15:57:38.266Z,26.30
2017-07-06T16:00:07.420Z,26.30
2017-07-06T16:02:37.279Z,27.40
2017-07-06T16:05:05.572Z,27.30
2017-07-06T16:07:33.883Z,38.10
2017-07-06T16:10:02.963Z,28.30
2017-07-06T16:12:32.077Z,28.20
2017-07-06T16:15:01.324Z,28.70
2017-07-06T16:17:29.630Z,29.00
2017-07-06T16:19:57.935Z,28.90
2017-07-06T16:22:26.259Z,29.80
2017-07-06T16:24:54.852Z,30.10
2017-07-06T16:27:23.893Z,29.80
2017-07-06T16:29:52.284Z,29.80
2017-07-06T16:32:20.674Z,30.00
2017-07-06T16:34:49.427Z,29.90
2017-07-06T16:37:18.064Z,29.70
2017-07-06T16:39:46.369Z,31.20
2017-07-06T16:42:15.752Z,31.00
2017-07-06T16:44:44.032Z,31.00
2017-07-06T16:47:12.383Z,32.10
2017-07-06T16:49:42.447Z,33.00
2017-07-06T16:52:10.779Z,32.80
2017-07-06T16:54:39.673Z,32.30
2017-07-06T16:57:07.989Z,32.20
2017-07-06T16:59:36.283Z,31.70
2017-07-06T17:02:04.945Z,32.50
2017-07-06T17:04:33.222Z,33.00
2017-07-06T17:07:01.489Z,33.40
2017-07-06T17:09:29.811Z,33.90
2017-07-06T17:11:59.036Z,33.60
2017-07-06T17:14:27.702Z,33.20
2017-07-06T17:16:55.993Z,33.40
2017-07-06T17:19:25.727Z,33.80
2017-07-06T17:21:54.472Z,34.30
2017-07-06T17:24:22.866Z,33.90
2017-07-06T17:26:51.444Z,35.00
2017-07-06T17:29:20.569Z,34.90
2017-07-06T17:31:49.679Z,35.20
2017-07-06T17:34:18.862Z,35.40
2017-07-06T17:36:47.172Z,35.30
2017-07-06T17:39:15.823Z,35.60
2017-07-06T17:41:44.887Z,35.80
2017-07-06T17:44:13.964Z,35.80
2017-07-06T17:46:43.400Z,35.80
2017-07-06T17:49:11.683Z,36.30
2017-07-06T17:51:41.037Z,37.00
2017-07-06T17:54:09.428Z,37.50
2017-07-06T17:56:38.488Z,37.80
2017-07-06T17:59:06.796Z,37.10
2017-07-06T18:01:35.790Z,37.60
2017-07-06T18:04:04.657Z,37.80
2017-07-06T18:06:32.906Z,38.40
2017-07-06T18:09:02.618Z,37.70
2017-07-06T18:11:30.955Z,38.10
2017-07-06T18:13:59.272Z,38.60
2017-07-06T18:16:28.752Z,38.80
2017-07-06T18:18:58.117Z,38.90
2017-07-06T18:21:27.776Z,38.70
2017-07-06T18:23:56.107Z,38.90
2017-07-06T18:26:24.448Z,39.20
2017-07-06T18:28:53.147Z,39.20
2017-07-06T18:31:21.517Z,40.00
2017-07-06T18:33:50.326Z,40.10
2017-07-06T18:36:19.490Z,39.90
2017-07-06T18:38:48.686Z,40.10
2017-07-06T18:41:18.605Z,40.50
2017-07-06T18:43:47.598Z,41.00
2017-07-06T18:46:16.324Z,41.40
2017-07-06T18:48:44.637Z,41.50
2017-07-06T18:51:12.922Z,42.30
2017-07-06T18:53:41.552Z,42.10
2017-07-06T18:56:09.845Z,42.50
2017-07-06T18:58:38.164Z,43.00
2017-07-06T19:01:06.461Z,43.30
2017-07-06T19:03:35.242Z,43.90
2017-07-06T19:06:04.598Z,43.90
2017-07-06T19:08:32.905Z,44.20
2017-07-06T19:11:02.106Z,44.40
2017-07-06T19:13:30.476Z,45.10
2017-07-06T19:16:00.116Z,45.40
2017-07-06T19:18:29.489Z,46.10
2017-07-06T19:20:57.797Z,46.00
2017-07-06T19:23:26.106Z,46.40
2017-07-06T19:25:55.187Z,47.30
2017-07-06T19:28:23.525Z,47.30
2017-07-06T19:30:53.015Z,47.80
2017-07-06T19:33:21.335Z,48.00
2017-07-06T19:35:50.550Z,48.20
2017-07-06T19:38:18.944Z,48.40
2017-07-06T19:40:48.011Z,48.70
2017-07-06T19:43:16.726Z,49.40
2017-07-06T19:45:45.205Z,50.20
2017-07-06T19:48:14.121Z,50.50
2017-07-06T19:50:42.497Z,51.10
2017-07-06T19:53:10.773Z,51.50
2017-07-06T19:55:39.350Z,51.90
2017-07-06T19:58:07.739Z,52.00
2017-07-06T20:00:36.943Z,52.30
2017-07-06T20:03:05.256Z,52.70
2017-07-06T20:05:33.981Z,52.70
2017-07-06T20:08:02.635Z,52.80
2017-07-06T20:10:31.668Z,53.90
2017-07-06T20:13:00.035Z,53.40
2017-07-06T20:15:28.635Z,53.50
2017-07-06T20:17:57.801Z,53.80
2017-07-06T20:20:26.901Z,54.10
2017-07-06T20:22:57.941Z,54.30
2017-07-06T20:25:27.017Z,54.30
2017-07-06T20:27:55.708Z,54.30
2017-07-06T20:30:23.977Z,54.30
2017-07-06T20:32:53.448Z,54.80
2017-07-06T20:35:21.758Z,54.90
2017-07-06T20:37:50.053Z,55.00
2017-07-06T20:40:19.541Z,55.10
2017-07-06T20:42:47.910Z,55.80
2017-07-06T20:45:17.320Z,55.60
2017-07-06T20:47:45.620Z,55.80
2017-07-06T20:50:14.723Z,55.90
2017-07-06T20:52:43.031Z,56.00
2017-07-06T20:55:22.969Z,56.20
2017-07-06T20:57:52.089Z,56.30
2017-07-06T21:00:21.147Z,56.80
2017-07-06T21:02:49.750Z,56.70
2017-07-06T21:05:18.469Z,56.50
2017-07-06T21:07:47.664Z,56.80
2017-07-06T21:10:15.947Z,56.80
2017-07-06T21:12:48.734Z,57.00
2017-07-06T21:15:18.597Z,56.90
2017-07-06T21:17:48.377Z,57.30
2017-07-06T21:20:18.187Z,57.50
2017-07-06T21:22:47.266Z,57.60
2017-07-06T21:25:15.581Z,57.60
2017-07-06T21:27:44.220Z,57.50
2017-07-06T21:30:13.061Z,57.60
2017-07-06T21:32:42.243Z,57.60
2017-07-06T21:35:10.623Z,57.80
2017-07-06T21:37:39.603Z,57.80
2017-07-06T21:40:08.980Z,58.30
2017-07-06T21:42:37.272Z,57.90
2017-07-06T21:45:05.563Z,58.00
2017-07-06T21:47:34.417Z,58.20
2017-07-06T21:50:02.705Z,58.20
2017-07-06T21:52:31.375Z,58.20
2017-07-06T21:55:00.458Z,58.50
2017-07-06T21:57:28.752Z,58.50
2017-07-06T21:59:57.073Z,58.90
2017-07-06T22:02:25.379Z,58.80
2017-07-06T22:04:53.979Z,59.00
2017-07-06T22:07:23.201Z,58.70
2017-07-06T22:09:52.407Z,58.80
2017-07-06T22:12:21.897Z,59.50
2017-07-06T22:14:50.305Z,59.10
2017-07-06T22:17:18.623Z,59.20
2017-07-06T22:19:46.946Z,59.30
2017-07-06T22:22:16.035Z,59.10
2017-07-06T22:24:44.660Z,58.90
2017-07-06T22:27:12.885Z,59.30
2017-07-06T22:29:42.229Z,59.30
2017-07-06T22:32:10.977Z,59.10
2017-07-06T22:34:39.273Z,59.00
2017-07-06T22:37:07.594Z,59.10
2017-07-06T22:39:36.258Z,59.10
2017-07-06T22:42:04.549Z,59.30
2017-07-06T22:44:32.908Z,59.30
2017-07-06T22:47:01.504Z,59.30
2017-07-06T22:49:29.815Z,59.50
2017-07-06T22:51:58.100Z,59.60
2017-07-06T22:54:27.028Z,59.50
2017-07-06T22:56:55.367Z,59.70
2017-07-06T22:59:23.699Z,59.70
2017-07-06T23:01:52.344Z,59.80
2017-07-06T23:04:21.154Z,59.80
2017-07-06T23:06:50.216Z,59.90
2017-07-06T23:09:19.490Z,59.90
2017-07-06T23:11:47.802Z,59.90
2017-07-06T23:14:16.096Z,59.90
2017-07-06T23:16:44.775Z,59.90
2017-07-06T23:19:13.057Z,60.00
2017-07-06T23:21:41.360Z,60.30
2017-07-06T23:24:10.020Z,60.30
2017-07-06T23:26:38.330Z,60.50
2017-07-06T23:29:06.626Z,60.50
2017-07-06T23:31:36.699Z,61.00
2017-07-06T23:34:05.740Z,60.90
2017-07-06T23:36:34.799Z,61.00
2017-07-06T23:39:03.355Z,61.00
2017-07-06T23:41:33.232Z,61.30
2017-07-06T23:44:02.976Z,61.20
2017-07-06T23:46:32.358Z,61.70
2017-07-06T23:49:00.729Z,61.70
2017-07-06T23:51:29.433Z,61.90
2017-07-06T23:53:58.731Z,62.10
2017-07-06T23:56:27.963Z,62.00
2017-07-06T23:58:56.271Z,62.50
